sensor_id;sensor_type;location;lat;lon;timestamp;P1;durP1;ratioP1;P2;durP2;ratioP2
71606;SDS011;60641;53.556;9.914;2023-01-10T00:01:45;15.60;;;5.00;;
71606;SDS011;60641;53.556;9.914;2023-01-10T00:04:12;13.60;;;4.00;;
71606;SDS011;60641;53.556;9.914;2023-01-10T00:06:38;13.00;;;3.80;;
71606;SDS011;60641;53.556;9.914;2023-01-10T00:09:05;13.50;;;3.80;;
71606;SDS011;60641;53.556;9.914;2023-01-10T00:11:31;15.30;;;3.90;;
71606;SDS011;60641;53.556;9.914;2023-01-10T00:14:16;13.70;;;4.00;;
71606;SDS011;60641;53.556;9.914;2023-01-10T00:16:42;14.80;;;3.50;;
71606;SDS011;60641;53.556;9.914;2023-01-10T00:19:09;11.00;;;3.10;;
71606;SDS011;60641;53.556;9.914;2023-01-10T00:21:36;15.10;;;3.60;;
71606;SDS011;60641;53.556;9.914;2023-01-10T00:24:02;15.50;;;3.20;;
71606;SDS011;60641;53.556;9.914;2023-01-10T00:26:43;11.60;;;3.00;;
71606;SDS011;60641;53.556;9.914;2023-01-10T00:29:11;15.40;;;3.80;;
71606;SDS011;60641;53.556;9.914;2023-01-10T00:31:38;12.70;;;3.10;;
71606;SDS011;60641;53.556;9.914;2023-01-10T00:34:05;13.80;;;3.40;;
71606;SDS011;60641;53.556;9.914;2023-01-10T00:36:32;17.80;;;3.30;;
71606;SDS011;60641;53.556;9.914;2023-01-10T00:38:59;11.40;;;3.10;;
71606;SDS011;60641;53.556;9.914;2023-01-10T00:41:26;15.20;;;2.80;;
71606;SDS011;60641;53.556;9.914;2023-01-10T00:44:11;10.70;;;2.70;;
71606;SDS011;60641;53.556;9.914;2023-01-10T00:46:37;12.00;;;2.90;;
71606;SDS011;60641;53.556;9.914;2023-01-10T00:49:04;11.10;;;2.40;;
71606;SDS011;60641;53.556;9.914;2023-01-10T00:51:33;14.70;;;2.60;;
71606;SDS011;60641;53.556;9.914;2023-01-10T00:54:00;11.40;;;2.70;;
71606;SDS011;60641;53.556;9.914;2023-01-10T00:56:27;12.70;;;2.70;;
71606;SDS011;60641;53.556;9.914;2023-01-10T00:58:53;14.40;;;3.00;;
71606;SDS011;60641;53.556;9.914;2023-01-10T01:01:20;16.30;;;2.80;;
71606;SDS011;60641;53.556;9.914;2023-01-10T01:03:46;12.30;;;2.90;;
71606;SDS011;60641;53.556;9.914;2023-01-10T01:06:12;10.70;;;2.60;;
71606;SDS011;60641;53.556;9.914;2023-01-10T01:08:39;13.60;;;2.50;;
71606;SDS011;60641;53.556;9.914;2023-01-10T01:11:05;11.90;;;2.60;;
71606;SDS011;60641;53.556;9.914;2023-01-10T01:13:32;12.50;;;2.40;;
71606;SDS011;60641;53.556;9.914;2023-01-10T01:15:59;10.80;;;2.70;;
71606;SDS011;60641;53.556;9.914;2023-01-10T01:18:26;10.40;;;2.60;;
71606;SDS011;60641;53.556;9.914;2023-01-10T01:20:53;15.50;;;3.50;;
71606;SDS011;60641;53.556;9.914;2023-01-10T01:23:22;11.30;;;2.90;;
71606;SDS011;60641;53.556;9.914;2023-01-10T01:25:49;14.40;;;2.70;;
71606;SDS011;60641;53.556;9.914;2023-01-10T01:28:19;13.00;;;3.20;;
71606;SDS011;60641;53.556;9.914;2023-01-10T01:30:47;11.10;;;2.90;;
71606;SDS011;60641;53.556;9.914;2023-01-10T01:33:13;13.00;;;3.20;;
71606;SDS011;60641;53.556;9.914;2023-01-10T01:35:40;9.70;;;3.00;;
71606;SDS011;60641;53.556;9.914;2023-01-10T01:38:10;15.80;;;2.50;;
71606;SDS011;60641;53.556;9.914;2023-01-10T01:40:37;11.40;;;3.40;;
71606;SDS011;60641;53.556;9.914;2023-01-10T01:43:04;11.60;;;3.00;;
71606;SDS011;60641;53.556;9.914;2023-01-10T01:45:32;9.30;;;3.30;;
71606;SDS011;60641;53.556;9.914;2023-01-10T01:48:12;15.40;;;3.70;;
71606;SDS011;60641;53.556;9.914;2023-01-10T01:53:52;15.70;;;3.50;;
71606;SDS011;60641;53.556;9.914;2023-01-10T01:56:25;10.60;;;3.10;;
71606;SDS011;60641;53.556;9.914;2023-01-10T01:58:56;13.10;;;3.10;;
71606;SDS011;60641;53.556;9.914;2023-01-10T02:01:26;14.30;;;3.20;;
71606;SDS011;60641;53.556;9.914;2023-01-10T02:03:55;15.30;;;3.40;;
71606;SDS011;60641;53.556;9.914;2023-01-10T02:06:26;12.30;;;3.70;;
71606;SDS011;60641;53.556;9.914;2023-01-10T02:09:01;11.30;;;2.90;;
71606;SDS011;60641;53.556;9.914;2023-01-10T02:11:30;16.10;;;4.20;;
71606;SDS011;60641;53.556;9.914;2023-01-10T02:13:57;14.00;;;3.40;;
71606;SDS011;60641;53.556;9.914;2023-01-10T02:16:24;9.80;;;3.40;;
71606;SDS011;60641;53.556;9.914;2023-01-10T02:18:50;13.50;;;3.70;;
71606;SDS011;60641;53.556;9.914;2023-01-10T02:21:25;12.40;;;3.60;;
71606;SDS011;60641;53.556;9.914;2023-01-10T02:45:49;11.60;;;3.80;;
71606;SDS011;60641;53.556;9.914;2023-01-10T02:48:22;13.40;;;4.00;;
71606;SDS011;60641;53.556;9.914;2023-01-10T02:50:51;12.40;;;3.80;;
71606;SDS011;60641;53.556;9.914;2023-01-10T03:07:26;11.40;;;3.60;;
71606;SDS011;60641;53.556;9.914;2023-01-10T03:10:02;9.90;;;3.30;;
71606;SDS011;60641;53.556;9.914;2023-01-10T03:12:39;12.70;;;4.00;;
71606;SDS011;60641;53.556;9.914;2023-01-10T03:15:11;12.70;;;3.30;;
71606;SDS011;60641;53.556;9.914;2023-01-10T03:17:39;15.00;;;3.70;;
71606;SDS011;60641;53.556;9.914;2023-01-10T03:20:07;10.00;;;3.20;;
71606;SDS011;60641;53.556;9.914;2023-01-10T03:22:35;13.60;;;3.90;;
71606;SDS011;60641;53.556;9.914;2023-01-10T03:25:05;12.30;;;3.10;;
71606;SDS011;60641;53.556;9.914;2023-01-10T03:27:36;11.50;;;2.90;;
71606;SDS011;60641;53.556;9.914;2023-01-10T03:32:51;11.70;;;3.50;;
71606;SDS011;60641;53.556;9.914;2023-01-10T03:35:18;12.60;;;3.30;;
71606;SDS011;60641;53.556;9.914;2023-01-10T03:38:01;9.00;;;2.70;;
71606;SDS011;60641;53.556;9.914;2023-01-10T03:40:54;9.80;;;2.90;;
71606;SDS011;60641;53.556;9.914;2023-01-10T03:43:38;12.70;;;3.20;;
71606;SDS011;60641;53.556;9.914;2023-01-10T03:46:35;11.60;;;2.90;;
71606;SDS011;60641;53.556;9.914;2023-01-10T03:49:12;13.30;;;3.00;;
71606;SDS011;60641;53.556;9.914;2023-01-10T03:51:40;10.80;;;2.70;;
71606;SDS011;60641;53.556;9.914;2023-01-10T03:54:07;14.00;;;2.80;;
71606;SDS011;60641;53.556;9.914;2023-01-10T03:56:44;11.60;;;2.90;;
71606;SDS011;60641;53.556;9.914;2023-01-10T03:59:21;15.10;;;3.20;;
71606;SDS011;60641;53.556;9.914;2023-01-10T04:01:50;12.80;;;2.80;;
71606;SDS011;60641;53.556;9.914;2023-01-10T04:04:17;12.40;;;2.50;;
71606;SDS011;60641;53.556;9.914;2023-01-10T04:06:43;11.50;;;2.60;;
71606;SDS011;60641;53.556;9.914;2023-01-10T04:09:10;12.10;;;2.90;;
71606;SDS011;60641;53.556;9.914;2023-01-10T04:11:36;11.20;;;2.60;;
71606;SDS011;60641;53.556;9.914;2023-01-10T04:14:03;9.50;;;2.50;;
71606;SDS011;60641;53.556;9.914;2023-01-10T04:16:30;11.40;;;2.70;;
71606;SDS011;60641;53.556;9.914;2023-01-10T04:18:56;12.50;;;2.40;;
71606;SDS011;60641;53.556;9.914;2023-01-10T04:21:22;9.90;;;2.20;;
71606;SDS011;60641;53.556;9.914;2023-01-10T04:23:49;15.60;;;2.90;;
71606;SDS011;60641;53.556;9.914;2023-01-10T04:26:15;8.60;;;2.30;;
71606;SDS011;60641;53.556;9.914;2023-01-10T04:28:42;11.90;;;2.30;;
71606;SDS011;60641;53.556;9.914;2023-01-10T04:31:08;11.10;;;2.80;;
71606;SDS011;60641;53.556;9.914;2023-01-10T04:33:34;10.70;;;2.40;;
71606;SDS011;60641;53.556;9.914;2023-01-10T04:36:01;13.10;;;2.80;;
71606;SDS011;60641;53.556;9.914;2023-01-10T04:38:27;10.40;;;2.30;;
71606;SDS011;60641;53.556;9.914;2023-01-10T04:40:55;9.80;;;2.20;;
71606;SDS011;60641;53.556;9.914;2023-01-10T04:43:22;11.20;;;2.10;;
71606;SDS011;60641;53.556;9.914;2023-01-10T04:45:49;9.40;;;2.20;;
71606;SDS011;60641;53.556;9.914;2023-01-10T04:48:16;11.50;;;2.70;;
71606;SDS011;60641;53.556;9.914;2023-01-10T04:50:47;12.00;;;2.50;;
71606;SDS011;60641;53.556;9.914;2023-01-10T04:53:14;12.80;;;3.00;;
71606;SDS011;60641;53.556;9.914;2023-01-10T04:55:41;10.40;;;2.20;;
71606;SDS011;60641;53.556;9.914;2023-01-10T04:58:07;9.20;;;1.80;;
71606;SDS011;60641;53.556;9.914;2023-01-10T05:00:34;12.00;;;2.10;;
71606;SDS011;60641;53.556;9.914;2023-01-10T05:03:00;8.60;;;2.10;;
71606;SDS011;60641;53.556;9.914;2023-01-10T05:05:27;7.20;;;1.60;;
71606;SDS011;60641;53.556;9.914;2023-01-10T05:07:54;7.80;;;1.70;;
71606;SDS011;60641;53.556;9.914;2023-01-10T05:10:20;11.40;;;2.70;;
71606;SDS011;60641;53.556;9.914;2023-01-10T05:12:47;10.50;;;2.30;;
71606;SDS011;60641;53.556;9.914;2023-01-10T05:15:13;12.50;;;2.10;;
71606;SDS011;60641;53.556;9.914;2023-01-10T05:17:40;10.00;;;1.80;;
71606;SDS011;60641;53.556;9.914;2023-01-10T05:20:07;9.40;;;1.60;;
71606;SDS011;60641;53.556;9.914;2023-01-10T05:22:34;11.90;;;1.60;;
71606;SDS011;60641;53.556;9.914;2023-01-10T05:25:01;8.80;;;1.50;;
71606;SDS011;60641;53.556;9.914;2023-01-10T05:27:27;9.20;;;1.60;;
71606;SDS011;60641;53.556;9.914;2023-01-10T05:29:54;15.20;;;2.30;;
71606;SDS011;60641;53.556;9.914;2023-01-10T05:32:21;11.80;;;1.60;;
71606;SDS011;60641;53.556;9.914;2023-01-10T05:34:47;9.70;;;1.40;;
71606;SDS011;60641;53.556;9.914;2023-01-10T05:37:14;10.00;;;1.70;;
71606;SDS011;60641;53.556;9.914;2023-01-10T05:39:40;9.70;;;1.50;;
71606;SDS011;60641;53.556;9.914;2023-01-10T05:42:09;8.10;;;1.50;;
71606;SDS011;60641;53.556;9.914;2023-01-10T05:44:35;10.80;;;1.70;;
71606;SDS011;60641;53.556;9.914;2023-01-10T05:47:01;12.30;;;1.70;;
71606;SDS011;60641;53.556;9.914;2023-01-10T05:49:28;10.30;;;1.50;;
71606;SDS011;60641;53.556;9.914;2023-01-10T05:51:54;10.40;;;1.50;;
71606;SDS011;60641;53.556;9.914;2023-01-10T05:54:20;10.80;;;1.50;;
71606;SDS011;60641;53.556;9.914;2023-01-10T05:56:47;8.30;;;1.60;;
71606;SDS011;60641;53.556;9.914;2023-01-10T05:59:13;12.50;;;1.80;;
71606;SDS011;60641;53.556;9.914;2023-01-10T06:01:40;10.20;;;1.80;;
71606;SDS011;60641;53.556;9.914;2023-01-10T06:04:06;10.20;;;1.70;;
71606;SDS011;60641;53.556;9.914;2023-01-10T06:06:33;11.80;;;1.80;;
71606;SDS011;60641;53.556;9.914;2023-01-10T06:08:59;10.40;;;1.70;;
71606;SDS011;60641;53.556;9.914;2023-01-10T06:11:26;14.40;;;2.20;;
71606;SDS011;60641;53.556;9.914;2023-01-10T06:13:58;10.70;;;1.60;;
71606;SDS011;60641;53.556;9.914;2023-01-10T06:16:24;7.90;;;1.50;;
71606;SDS011;60641;53.556;9.914;2023-01-10T06:18:51;7.40;;;1.70;;
71606;SDS011;60641;53.556;9.914;2023-01-10T06:21:17;8.40;;;1.70;;
71606;SDS011;60641;53.556;9.914;2023-01-10T06:23:44;13.00;;;1.80;;
71606;SDS011;60641;53.556;9.914;2023-01-10T06:26:11;8.80;;;1.40;;
71606;SDS011;60641;53.556;9.914;2023-01-10T06:28:37;10.10;;;1.70;;
71606;SDS011;60641;53.556;9.914;2023-01-10T06:31:06;10.80;;;1.90;;
71606;SDS011;60641;53.556;9.914;2023-01-10T06:33:33;10.30;;;1.90;;
71606;SDS011;60641;53.556;9.914;2023-01-10T06:36:00;10.40;;;1.90;;
71606;SDS011;60641;53.556;9.914;2023-01-10T06:38:27;9.00;;;1.70;;
71606;SDS011;60641;53.556;9.914;2023-01-10T06:40:53;11.50;;;2.10;;
71606;SDS011;60641;53.556;9.914;2023-01-10T06:43:20;11.50;;;2.00;;
71606;SDS011;60641;53.556;9.914;2023-01-10T06:45:46;10.40;;;2.10;;
71606;SDS011;60641;53.556;9.914;2023-01-10T06:48:13;12.00;;;2.10;;
71606;SDS011;60641;53.556;9.914;2023-01-10T06:50:39;12.30;;;2.00;;
71606;SDS011;60641;53.556;9.914;2023-01-10T06:53:05;10.50;;;1.80;;
71606;SDS011;60641;53.556;9.914;2023-01-10T06:55:34;11.90;;;1.70;;
71606;SDS011;60641;53.556;9.914;2023-01-10T06:58:01;11.10;;;2.10;;
71606;SDS011;60641;53.556;9.914;2023-01-10T07:00:30;8.80;;;1.80;;
71606;SDS011;60641;53.556;9.914;2023-01-10T07:02:57;11.30;;;1.90;;
71606;SDS011;60641;53.556;9.914;2023-01-10T07:05:24;9.70;;;2.30;;
71606;SDS011;60641;53.556;9.914;2023-01-10T07:07:50;13.60;;;2.00;;
71606;SDS011;60641;53.556;9.914;2023-01-10T07:10:17;10.40;;;2.20;;
71606;SDS011;60641;53.556;9.914;2023-01-10T07:12:43;14.90;;;2.40;;
71606;SDS011;60641;53.556;9.914;2023-01-10T07:15:10;13.20;;;2.20;;
71606;SDS011;60641;53.556;9.914;2023-01-10T07:17:36;14.40;;;2.40;;
71606;SDS011;60641;53.556;9.914;2023-01-10T07:20:03;14.10;;;2.50;;
71606;SDS011;60641;53.556;9.914;2023-01-10T07:22:30;16.20;;;2.10;;
71606;SDS011;60641;53.556;9.914;2023-01-10T07:24:56;16.00;;;2.40;;
71606;SDS011;60641;53.556;9.914;2023-01-10T07:27:23;14.10;;;2.20;;
71606;SDS011;60641;53.556;9.914;2023-01-10T07:29:49;12.30;;;1.90;;
71606;SDS011;60641;53.556;9.914;2023-01-10T07:32:15;11.60;;;2.00;;
71606;SDS011;60641;53.556;9.914;2023-01-10T07:34:42;8.90;;;2.30;;
71606;SDS011;60641;53.556;9.914;2023-01-10T07:37:08;13.00;;;2.80;;
71606;SDS011;60641;53.556;9.914;2023-01-10T07:39:35;13.60;;;2.20;;
71606;SDS011;60641;53.556;9.914;2023-01-10T07:42:01;14.30;;;3.10;;
71606;SDS011;60641;53.556;9.914;2023-01-10T07:44:27;14.00;;;2.40;;
71606;SDS011;60641;53.556;9.914;2023-01-10T07:46:54;10.00;;;2.10;;
71606;SDS011;60641;53.556;9.914;2023-01-10T07:49:20;10.00;;;2.10;;
71606;SDS011;60641;53.556;9.914;2023-01-10T07:51:47;13.10;;;2.30;;
71606;SDS011;60641;53.556;9.914;2023-01-10T07:54:13;15.50;;;2.50;;
71606;SDS011;60641;53.556;9.914;2023-01-10T07:56:39;13.30;;;2.70;;
71606;SDS011;60641;53.556;9.914;2023-01-10T07:59:06;18.50;;;2.40;;
71606;SDS011;60641;53.556;9.914;2023-01-10T08:01:32;12.30;;;2.10;;
71606;SDS011;60641;53.556;9.914;2023-01-10T08:03:59;14.60;;;2.80;;
71606;SDS011;60641;53.556;9.914;2023-01-10T08:06:25;13.10;;;2.60;;
71606;SDS011;60641;53.556;9.914;2023-01-10T08:08:52;15.00;;;2.90;;
71606;SDS011;60641;53.556;9.914;2023-01-10T08:11:18;12.50;;;2.50;;
71606;SDS011;60641;53.556;9.914;2023-01-10T08:13:45;11.60;;;2.30;;
71606;SDS011;60641;53.556;9.914;2023-01-10T08:16:11;13.30;;;2.10;;
71606;SDS011;60641;53.556;9.914;2023-01-10T08:18:38;12.10;;;2.40;;
71606;SDS011;60641;53.556;9.914;2023-01-10T08:21:08;11.70;;;2.30;;
71606;SDS011;60641;53.556;9.914;2023-01-10T08:23:34;15.40;;;2.10;;
71606;SDS011;60641;53.556;9.914;2023-01-10T08:26:01;13.30;;;2.80;;
71606;SDS011;60641;53.556;9.914;2023-01-10T08:28:28;18.70;;;2.90;;
71606;SDS011;60641;53.556;9.914;2023-01-10T08:30:54;12.60;;;2.50;;
71606;SDS011;60641;53.556;9.914;2023-01-10T08:33:21;13.10;;;2.60;;
71606;SDS011;60641;53.556;9.914;2023-01-10T08:35:48;16.60;;;2.90;;
71606;SDS011;60641;53.556;9.914;2023-01-10T08:38:15;15.30;;;2.90;;
71606;SDS011;60641;53.556;9.914;2023-01-10T08:40:42;14.10;;;3.10;;
71606;SDS011;60641;53.556;9.914;2023-01-10T08:43:09;10.10;;;2.40;;
71606;SDS011;60641;53.556;9.914;2023-01-10T08:45:36;13.30;;;3.10;;
71606;SDS011;60641;53.556;9.914;2023-01-10T08:48:04;12.30;;;2.80;;
71606;SDS011;60641;53.556;9.914;2023-01-10T08:50:31;13.10;;;2.70;;
71606;SDS011;60641;53.556;9.914;2023-01-10T08:52:57;15.80;;;3.60;;
71606;SDS011;60641;53.556;9.914;2023-01-10T08:55:25;16.00;;;3.30;;
71606;SDS011;60641;53.556;9.914;2023-01-10T08:57:52;17.10;;;3.00;;
71606;SDS011;60641;53.556;9.914;2023-01-10T09:00:18;13.10;;;2.80;;
71606;SDS011;60641;53.556;9.914;2023-01-10T09:02:45;16.90;;;3.00;;
71606;SDS011;60641;53.556;9.914;2023-01-10T09:05:11;11.70;;;3.30;;
71606;SDS011;60641;53.556;9.914;2023-01-10T09:07:38;13.00;;;2.90;;
71606;SDS011;60641;53.556;9.914;2023-01-10T09:10:06;14.50;;;3.00;;
71606;SDS011;60641;53.556;9.914;2023-01-10T09:12:34;14.60;;;3.40;;
71606;SDS011;60641;53.556;9.914;2023-01-10T09:15:23;15.10;;;3.70;;
71606;SDS011;60641;53.556;9.914;2023-01-10T09:17:52;13.20;;;2.90;;
71606;SDS011;60641;53.556;9.914;2023-01-10T09:20:26;12.90;;;3.20;;
71606;SDS011;60641;53.556;9.914;2023-01-10T09:22:53;15.80;;;3.30;;
71606;SDS011;60641;53.556;9.914;2023-01-10T09:25:20;17.00;;;3.70;;
71606;SDS011;60641;53.556;9.914;2023-01-10T09:27:46;12.40;;;3.30;;
71606;SDS011;60641;53.556;9.914;2023-01-10T09:30:13;12.70;;;3.30;;
71606;SDS011;60641;53.556;9.914;2023-01-10T09:32:40;14.10;;;3.60;;
71606;SDS011;60641;53.556;9.914;2023-01-10T09:35:06;15.80;;;3.40;;
71606;SDS011;60641;53.556;9.914;2023-01-10T09:37:33;14.20;;;3.20;;
71606;SDS011;60641;53.556;9.914;2023-01-10T09:40:00;13.60;;;3.50;;
71606;SDS011;60641;53.556;9.914;2023-01-10T09:52:43;13.60;;;3.20;;
71606;SDS011;60641;53.556;9.914;2023-01-10T09:55:17;11.10;;;3.30;;
71606;SDS011;60641;53.556;9.914;2023-01-10T09:57:48;14.50;;;3.50;;
71606;SDS011;60641;53.556;9.914;2023-01-10T10:00:18;16.00;;;4.10;;
71606;SDS011;60641;53.556;9.914;2023-01-10T10:02:47;11.80;;;3.60;;
71606;SDS011;60641;53.556;9.914;2023-01-10T10:05:21;14.70;;;3.60;;
71606;SDS011;60641;53.556;9.914;2023-01-10T10:07:59;15.20;;;3.90;;
71606;SDS011;60641;53.556;9.914;2023-01-10T10:10:46;15.60;;;3.70;;
71606;SDS011;60641;53.556;9.914;2023-01-10T10:13:46;13.90;;;3.50;;
71606;SDS011;60641;53.556;9.914;2023-01-10T10:16:29;17.10;;;3.90;;
71606;SDS011;60641;53.556;9.914;2023-01-10T10:24:17;13.60;;;3.50;;
71606;SDS011;60641;53.556;9.914;2023-01-10T10:30:02;15.20;;;3.60;;
71606;SDS011;60641;53.556;9.914;2023-01-10T10:37:47;17.90;;;4.40;;
71606;SDS011;60641;53.556;9.914;2023-01-10T10:40:20;16.70;;;4.50;;
71606;SDS011;60641;53.556;9.914;2023-01-10T10:42:49;15.20;;;4.90;;
71606;SDS011;60641;53.556;9.914;2023-01-10T10:45:21;17.70;;;4.90;;
71606;SDS011;60641;53.556;9.914;2023-01-10T10:47:51;14.30;;;4.10;;
71606;SDS011;60641;53.556;9.914;2023-01-10T10:50:27;11.50;;;4.30;;
71606;SDS011;60641;53.556;9.914;2023-01-10T10:52:57;15.00;;;4.60;;
71606;SDS011;60641;53.556;9.914;2023-01-10T10:55:33;13.90;;;4.20;;
71606;SDS011;60641;53.556;9.914;2023-01-10T10:58:04;13.40;;;4.70;;
71606;SDS011;60641;53.556;9.914;2023-01-10T11:00:31;12.90;;;4.40;;
71606;SDS011;60641;53.556;9.914;2023-01-10T11:05:52;14.30;;;4.10;;
71606;SDS011;60641;53.556;9.914;2023-01-10T11:08:19;14.60;;;4.30;;
71606;SDS011;60641;53.556;9.914;2023-01-10T11:10:48;13.80;;;4.30;;
71606;SDS011;60641;53.556;9.914;2023-01-10T11:15:59;14.10;;;4.00;;
71606;SDS011;60641;53.556;9.914;2023-01-10T11:18:28;15.60;;;4.50;;
71606;SDS011;60641;53.556;9.914;2023-01-10T11:20:56;16.20;;;4.90;;
71606;SDS011;60641;53.556;9.914;2023-01-10T11:26:03;14.80;;;4.30;;
71606;SDS011;60641;53.556;9.914;2023-01-10T11:28:31;16.40;;;4.90;;
71606;SDS011;60641;53.556;9.914;2023-01-10T11:30:59;14.30;;;4.00;;
71606;SDS011;60641;53.556;9.914;2023-01-10T11:33:27;14.70;;;4.40;;
71606;SDS011;60641;53.556;9.914;2023-01-10T11:35:57;15.80;;;4.00;;
71606;SDS011;60641;53.556;9.914;2023-01-10T11:38:26;13.40;;;3.80;;
71606;SDS011;60641;53.556;9.914;2023-01-10T11:41:00;15.20;;;3.90;;
71606;SDS011;60641;53.556;9.914;2023-01-10T11:46:00;17.10;;;4.30;;
71606;SDS011;60641;53.556;9.914;2023-01-10T11:48:38;17.40;;;4.30;;
71606;SDS011;60641;53.556;9.914;2023-01-10T11:51:15;20.10;;;5.00;;
71606;SDS011;60641;53.556;9.914;2023-01-10T11:53:43;19.30;;;4.20;;
71606;SDS011;60641;53.556;9.914;2023-01-10T11:56:11;13.20;;;3.80;;
71606;SDS011;60641;53.556;9.914;2023-01-10T11:58:39;14.80;;;4.30;;
71606;SDS011;60641;53.556;9.914;2023-01-10T12:01:16;14.30;;;3.70;;
71606;SDS011;60641;53.556;9.914;2023-01-10T12:03:50;16.50;;;4.00;;
71606;SDS011;60641;53.556;9.914;2023-01-10T12:06:17;17.60;;;4.10;;
71606;SDS011;60641;53.556;9.914;2023-01-10T12:08:43;19.50;;;4.70;;
71606;SDS011;60641;53.556;9.914;2023-01-10T12:13:44;16.00;;;4.50;;
71606;SDS011;60641;53.556;9.914;2023-01-10T12:18:43;18.10;;;4.30;;
71606;SDS011;60641;53.556;9.914;2023-01-10T12:21:10;17.60;;;4.40;;
71606;SDS011;60641;53.556;9.914;2023-01-10T12:23:38;16.20;;;4.30;;
71606;SDS011;60641;53.556;9.914;2023-01-10T12:26:07;15.20;;;4.10;;
71606;SDS011;60641;53.556;9.914;2023-01-10T12:28:34;13.70;;;4.30;;
71606;SDS011;60641;53.556;9.914;2023-01-10T12:31:01;15.70;;;4.40;;
71606;SDS011;60641;53.556;9.914;2023-01-10T12:33:34;17.40;;;4.80;;
71606;SDS011;60641;53.556;9.914;2023-01-10T12:39:04;19.00;;;4.70;;
71606;SDS011;60641;53.556;9.914;2023-01-10T12:44:43;19.50;;;5.30;;
71606;SDS011;60641;53.556;9.914;2023-01-10T12:47:21;19.30;;;5.90;;
71606;SDS011;60641;53.556;9.914;2023-01-10T12:50:05;18.20;;;4.60;;
71606;SDS011;60641;53.556;9.914;2023-01-10T12:52:38;13.90;;;4.90;;
71606;SDS011;60641;53.556;9.914;2023-01-10T12:55:30;17.70;;;5.30;;
71606;SDS011;60641;53.556;9.914;2023-01-10T12:58:01;18.00;;;4.60;;
71606;SDS011;60641;53.556;9.914;2023-01-10T13:00:33;14.90;;;4.30;;
71606;SDS011;60641;53.556;9.914;2023-01-10T13:03:11;22.00;;;4.70;;
71606;SDS011;60641;53.556;9.914;2023-01-10T13:05:40;17.20;;;4.50;;
71606;SDS011;60641;53.556;9.914;2023-01-10T13:08:12;13.00;;;4.40;;
71606;SDS011;60641;53.556;9.914;2023-01-10T13:10:40;19.50;;;4.90;;
71606;SDS011;60641;53.556;9.914;2023-01-10T13:15:40;17.40;;;4.80;;
71606;SDS011;60641;53.556;9.914;2023-01-10T13:18:15;18.40;;;4.60;;
71606;SDS011;60641;53.556;9.914;2023-01-10T13:20:44;17.40;;;4.80;;
71606;SDS011;60641;53.556;9.914;2023-01-10T13:23:12;14.80;;;4.20;;
71606;SDS011;60641;53.556;9.914;2023-01-10T13:25:52;15.90;;;4.60;;
71606;SDS011;60641;53.556;9.914;2023-01-10T13:28:27;13.80;;;4.90;;
71606;SDS011;60641;53.556;9.914;2023-01-10T13:30:56;20.70;;;4.50;;
71606;SDS011;60641;53.556;9.914;2023-01-10T13:33:25;15.80;;;4.60;;
71606;SDS011;60641;53.556;9.914;2023-01-10T13:35:55;16.60;;;4.30;;
71606;SDS011;60641;53.556;9.914;2023-01-10T13:38:37;18.00;;;4.40;;
71606;SDS011;60641;53.556;9.914;2023-01-10T13:41:10;16.50;;;4.70;;
71606;SDS011;60641;53.556;9.914;2023-01-10T13:44:05;14.20;;;4.50;;
71606;SDS011;60641;53.556;9.914;2023-01-10T13:46:34;15.90;;;4.30;;
71606;SDS011;60641;53.556;9.914;2023-01-10T13:51:29;15.60;;;4.40;;
71606;SDS011;60641;53.556;9.914;2023-01-10T13:54:00;16.80;;;4.40;;
71606;SDS011;60641;53.556;9.914;2023-01-10T13:56:37;15.20;;;4.30;;
71606;SDS011;60641;53.556;9.914;2023-01-10T14:02:24;16.20;;;4.30;;
71606;SDS011;60641;53.556;9.914;2023-01-10T14:04:55;18.50;;;5.10;;
71606;SDS011;60641;53.556;9.914;2023-01-10T14:08:10;18.20;;;4.50;;
71606;SDS011;60641;53.556;9.914;2023-01-10T14:10:23;11.20;;;3.30;;
71606;SDS011;60641;53.556;9.914;2023-01-10T14:12:58;16.90;;;4.80;;
71606;SDS011;60641;53.556;9.914;2023-01-10T14:15:38;15.70;;;4.00;;
71606;SDS011;60641;53.556;9.914;2023-01-10T14:18:15;19.50;;;4.60;;
71606;SDS011;60641;53.556;9.914;2023-01-10T14:20:44;15.00;;;4.10;;
71606;SDS011;60641;53.556;9.914;2023-01-10T14:23:21;15.00;;;3.60;;
71606;SDS011;60641;53.556;9.914;2023-01-10T14:25:54;16.10;;;3.60;;
71606;SDS011;60641;53.556;9.914;2023-01-10T14:28:23;13.30;;;3.40;;
71606;SDS011;60641;53.556;9.914;2023-01-10T14:31:37;13.30;;;3.40;;
71606;SDS011;60641;53.556;9.914;2023-01-10T14:33:39;15.40;;;3.00;;
71606;SDS011;60641;53.556;9.914;2023-01-10T14:36:08;16.20;;;3.30;;
71606;SDS011;60641;53.556;9.914;2023-01-10T14:38:40;14.90;;;3.60;;
71606;SDS011;60641;53.556;9.914;2023-01-10T14:41:11;16.20;;;3.70;;
71606;SDS011;60641;53.556;9.914;2023-01-10T14:43:43;17.00;;;3.10;;
71606;SDS011;60641;53.556;9.914;2023-01-10T14:46:13;13.60;;;3.20;;
71606;SDS011;60641;53.556;9.914;2023-01-10T14:48:48;13.30;;;3.30;;
71606;SDS011;60641;53.556;9.914;2023-01-10T14:56:49;14.30;;;3.50;;
71606;SDS011;60641;53.556;9.914;2023-01-10T15:01:51;11.10;;;2.70;;
71606;SDS011;60641;53.556;9.914;2023-01-10T15:04:21;15.80;;;2.90;;
71606;SDS011;60641;53.556;9.914;2023-01-10T15:06:52;14.10;;;2.70;;
71606;SDS011;60641;53.556;9.914;2023-01-10T15:09:20;13.40;;;2.60;;
71606;SDS011;60641;53.556;9.914;2023-01-10T15:11:47;16.70;;;3.50;;
71606;SDS011;60641;53.556;9.914;2023-01-10T15:14:15;16.90;;;3.30;;
71606;SDS011;60641;53.556;9.914;2023-01-10T15:16:46;13.20;;;3.10;;
71606;SDS011;60641;53.556;9.914;2023-01-10T15:19:14;16.00;;;3.00;;
71606;SDS011;60641;53.556;9.914;2023-01-10T15:21:44;13.50;;;3.20;;
71606;SDS011;60641;53.556;9.914;2023-01-10T15:27:04;17.00;;;3.30;;
71606;SDS011;60641;53.556;9.914;2023-01-10T15:29:33;13.90;;;2.90;;
71606;SDS011;60641;53.556;9.914;2023-01-10T15:32:07;16.60;;;3.80;;
71606;SDS011;60641;53.556;9.914;2023-01-10T15:34:36;18.30;;;3.30;;
71606;SDS011;60641;53.556;9.914;2023-01-10T15:37:04;15.00;;;3.30;;
71606;SDS011;60641;53.556;9.914;2023-01-10T15:39:36;13.80;;;3.20;;
71606;SDS011;60641;53.556;9.914;2023-01-10T15:42:08;13.30;;;3.20;;
71606;SDS011;60641;53.556;9.914;2023-01-10T15:44:43;15.80;;;3.80;;
71606;SDS011;60641;53.556;9.914;2023-01-10T15:50:22;16.10;;;3.70;;
71606;SDS011;60641;53.556;9.914;2023-01-10T15:53:03;16.70;;;3.70;;
71606;SDS011;60641;53.556;9.914;2023-01-10T15:58:25;16.80;;;3.90;;
71606;SDS011;60641;53.556;9.914;2023-01-10T16:00:54;20.50;;;3.50;;
71606;SDS011;60641;53.556;9.914;2023-01-10T16:03:30;14.30;;;3.40;;
71606;SDS011;60641;53.556;9.914;2023-01-10T16:06:13;17.30;;;4.50;;
71606;SDS011;60641;53.556;9.914;2023-01-10T16:08:47;14.60;;;3.60;;
71606;SDS011;60641;53.556;9.914;2023-01-10T16:14:21;16.30;;;3.20;;
71606;SDS011;60641;53.556;9.914;2023-01-10T16:16:48;15.40;;;3.40;;
71606;SDS011;60641;53.556;9.914;2023-01-10T16:19:14;16.30;;;3.60;;
71606;SDS011;60641;53.556;9.914;2023-01-10T16:21:42;21.50;;;3.50;;
71606;SDS011;60641;53.556;9.914;2023-01-10T16:24:15;13.40;;;3.30;;
71606;SDS011;60641;53.556;9.914;2023-01-10T16:26:44;16.40;;;3.30;;
71606;SDS011;60641;53.556;9.914;2023-01-10T16:29:11;13.70;;;3.30;;
71606;SDS011;60641;53.556;9.914;2023-01-10T16:31:38;16.60;;;3.40;;
71606;SDS011;60641;53.556;9.914;2023-01-10T16:34:05;15.50;;;3.60;;
71606;SDS011;60641;53.556;9.914;2023-01-10T16:36:32;14.50;;;3.90;;
71606;SDS011;60641;53.556;9.914;2023-01-10T16:39:05;18.70;;;3.70;;
71606;SDS011;60641;53.556;9.914;2023-01-10T16:41:33;21.10;;;4.00;;
71606;SDS011;60641;53.556;9.914;2023-01-10T16:44:18;14.20;;;3.80;;
71606;SDS011;60641;53.556;9.914;2023-01-10T16:46:45;18.60;;;4.30;;